sensor_id;sensor_type;location;lat;lon;timestamp;pressure;altitude;pressure_sealevel;temperature;humidity
53647;BME280;39550;52.230;5.194;2022-08-19T00:01:40;101251.28;;;20.61;67.61
53647;BME280;39550;52.230;5.194;2022-08-19T00:04:10;101254.78;;;20.60;67.68
53647;BME280;39550;52.230;5.194;2022-08-19T00:06:37;101247.84;;;20.59;67.84
53647;BME280;39550;52.230;5.194;2022-08-19T00:09:05;101242.63;;;20.59;67.85
53647;BME280;39550;52.230;5.194;2022-08-19T00:11:31;101248.75;;;20.58;67.81
53647;BME280;39550;52.230;5.194;2022-08-19T00:13:57;101246.13;;;20.58;67.79
53647;BME280;39550;52.230;5.194;2022-08-19T00:16:23;101237.63;;;20.50;67.70
53647;BME280;39550;52.230;5.194;2022-08-19T00:18:49;101255.75;;;20.56;67.65
53647;BME280;39550;52.230;5.194;2022-08-19T00:21:15;101256.69;;;20.55;67.88
53647;BME280;39550;52.230;5.194;2022-08-19T00:23:41;101260.19;;;20.54;67.53
53647;BME280;39550;52.230;5.194;2022-08-19T00:26:07;101260.19;;;20.54;67.64
53647;BME280;39550;52.230;5.194;2022-08-19T00:28:33;101255.84;;;20.53;67.53
53647;BME280;39550;52.230;5.194;2022-08-19T00:31:01;101241.13;;;20.49;67.56
53647;BME280;39550;52.230;5.194;2022-08-19T00:33:28;101241.13;;;20.49;67.68
53647;BME280;39550;52.230;5.194;2022-08-19T00:35:58;101234.25;;;20.45;67.52
53647;BME280;39550;52.230;5.194;2022-08-19T00:38:23;101245.53;;;20.48;67.77
53647;BME280;39550;52.230;5.194;2022-08-19T00:40:49;101241.13;;;20.49;67.76
53647;BME280;39550;52.230;5.194;2022-08-19T00:43:20;101237.72;;;20.47;67.50
53647;BME280;39550;52.230;5.194;2022-08-19T00:45:46;101248.19;;;20.47;67.72
53647;BME280;39550;52.230;5.194;2022-08-19T00:48:12;101241.22;;;20.46;67.53
53647;BME280;39550;52.230;5.194;2022-08-19T00:50:40;101244.72;;;20.45;67.73
53647;BME280;39550;52.230;5.194;2022-08-19T00:53:09;101237.81;;;20.44;68.06
53647;BME280;39550;52.230;5.194;2022-08-19T00:55:35;101239.53;;;20.43;67.49
53647;BME280;39550;52.230;5.194;2022-08-19T00:58:07;101250.91;;;20.42;67.54
53647;BME280;39550;52.230;5.194;2022-08-19T01:00:34;101241.34;;;20.41;68.13
53647;BME280;39550;52.230;5.194;2022-08-19T01:03:06;101244.03;;;20.39;68.29
53647;BME280;39550;52.230;5.194;2022-08-19T01:05:31;101243.09;;;20.40;67.75
53647;BME280;39550;52.230;5.194;2022-08-19T01:07:59;101244.03;;;20.39;67.69
53647;BME280;39550;52.230;5.194;2022-08-19T01:10:28;101238.78;;;20.38;67.80
53647;BME280;39550;52.230;5.194;2022-08-19T01:12:55;101250.19;;;20.37;67.24
53647;BME280;39550;52.230;5.194;2022-08-19T01:15:24;101254.53;;;20.36;68.08
53647;BME280;39550;52.230;5.194;2022-08-19T01:17:53;101247.63;;;20.35;67.85
53647;BME280;39550;52.230;5.194;2022-08-19T01:20:21;101245.94;;;20.33;67.82
53647;BME280;39550;52.230;5.194;2022-08-19T01:22:55;101245.88;;;20.34;68.14
53647;BME280;39550;52.230;5.194;2022-08-19T01:25:26;101238.94;;;20.33;68.30
53647;BME280;39550;52.230;5.194;2022-08-19T01:27:52;101244.22;;;20.32;68.18
53647;BME280;39550;52.230;5.194;2022-08-19T01:30:24;101243.41;;;20.28;67.92
53647;BME280;39550;52.230;5.194;2022-08-19T01:32:50;101255.56;;;20.31;68.14
53647;BME280;39550;52.230;5.194;2022-08-19T01:35:16;101257.34;;;20.30;68.05
53647;BME280;39550;52.230;5.194;2022-08-19T01:37:50;101258.22;;;20.29;68.09
53647;BME280;39550;52.230;5.194;2022-08-19T01:40:19;101246.97;;;20.27;68.14
53647;BME280;39550;52.230;5.194;2022-08-19T01:42:48;101250.41;;;20.28;68.15
53647;BME280;39550;52.230;5.194;2022-08-19T01:45:14;101252.19;;;20.27;68.14
53647;BME280;39550;52.230;5.194;2022-08-19T01:47:39;101250.47;;;20.26;67.83
53647;BME280;39550;52.230;5.194;2022-08-19T01:50:07;101257.47;;;20.24;68.03
53647;BME280;39550;52.230;5.194;2022-08-19T01:52:35;101262.72;;;20.24;67.63
53647;BME280;39550;52.230;5.194;2022-08-19T01:55:01;101265.34;;;20.24;68.13
53647;BME280;39550;52.230;5.194;2022-08-19T01:57:26;101261.88;;;20.23;67.97
53647;BME280;39550;52.230;5.194;2022-08-19T01:59:52;101257.56;;;20.21;67.97
53647;BME280;39550;52.230;5.194;2022-08-19T02:02:18;101261.06;;;20.21;67.84
53647;BME280;39550;52.230;5.194;2022-08-19T02:04:44;101262.84;;;20.19;67.76
53647;BME280;39550;52.230;5.194;2022-08-19T02:07:10;101262.00;;;20.19;68.02
53647;BME280;39550;52.230;5.194;2022-08-19T02:09:36;101260.22;;;20.19;68.25
53647;BME280;39550;52.230;5.194;2022-08-19T02:12:01;101262.88;;;20.18;68.09
53647;BME280;39550;52.230;5.194;2022-08-19T02:14:27;101261.16;;;20.17;67.77
53647;BME280;39550;52.230;5.194;2022-08-19T02:16:52;101259.44;;;20.16;67.73
53647;BME280;39550;52.230;5.194;2022-08-19T02:19:17;101267.28;;;20.16;68.02
53647;BME280;39550;52.230;5.194;2022-08-19T02:21:43;101268.22;;;20.15;67.88
53647;BME280;39550;52.230;5.194;2022-08-19T02:24:09;101262.09;;;20.14;67.34
53647;BME280;39550;52.230;5.194;2022-08-19T02:26:34;101262.13;;;20.13;67.38
53647;BME280;39550;52.230;5.194;2022-08-19T02:29:00;101265.66;;;20.12;67.47
53647;BME280;39550;52.230;5.194;2022-08-19T02:31:25;101266.56;;;20.11;67.94
53647;BME280;39550;52.230;5.194;2022-08-19T02:33:52;101250.91;;;20.07;67.82
53647;BME280;39550;52.230;5.194;2022-08-19T02:36:18;101260.53;;;20.07;67.91
53647;BME280;39550;52.230;5.194;2022-08-19T02:38:44;101268.34;;;20.08;67.88
53647;BME280;39550;52.230;5.194;2022-08-19T02:41:24;101266.63;;;20.07;67.56
53647;BME280;39550;52.230;5.194;2022-08-19T02:43:50;101262.34;;;20.03;67.79
53647;BME280;39550;52.230;5.194;2022-08-19T02:46:19;101264.00;;;20.07;67.67
53647;BME280;39550;52.230;5.194;2022-08-19T02:48:50;101258.03;;;20.02;67.63
53647;BME280;39550;52.230;5.194;2022-08-19T02:51:24;101258.84;;;20.04;67.69
53647;BME280;39550;52.230;5.194;2022-08-19T02:53:50;101252.91;;;19.99;67.77
53647;BME280;39550;52.230;5.194;2022-08-19T02:56:15;101255.47;;;20.01;68.01
53647;BME280;39550;52.230;5.194;2022-08-19T02:58:41;101251.94;;;20.02;67.78
53647;BME280;39550;52.230;5.194;2022-08-19T03:01:08;101245.91;;;20.00;67.94
53647;BME280;39550;52.230;5.194;2022-08-19T03:03:33;101242.44;;;19.99;67.53
53647;BME280;39550;52.230;5.194;2022-08-19T03:06:07;101245.94;;;19.98;67.79
53647;BME280;39550;52.230;5.194;2022-08-19T03:08:34;101244.22;;;19.97;67.56
53647;BME280;39550;52.230;5.194;2022-08-19T03:10:59;101244.22;;;19.97;67.59
53647;BME280;39550;52.230;5.194;2022-08-19T03:13:24;101243.38;;;19.97;67.61
53647;BME280;39550;52.230;5.194;2022-08-19T03:15:50;101246.03;;;19.95;67.57
53647;BME280;39550;52.230;5.194;2022-08-19T03:18:16;101253.88;;;19.95;67.74
53647;BME280;39550;52.230;5.194;2022-08-19T03:20:48;101257.38;;;19.94;67.61
53647;BME280;39550;52.230;5.194;2022-08-19T03:23:15;101249.53;;;19.94;67.52
53647;BME280;39550;52.230;5.194;2022-08-19T03:25:44;101246.06;;;19.92;67.40
53647;BME280;39550;52.230;5.194;2022-08-19T03:28:11;101240.00;;;19.92;67.45
53647;BME280;39550;52.230;5.194;2022-08-19T03:30:37;101221.88;;;19.84;67.17
53647;BME280;39550;52.230;5.194;2022-08-19T03:33:04;101235.69;;;19.89;67.56
53647;BME280;39550;52.230;5.194;2022-08-19T03:35:30;101214.19;;;19.76;67.42
53647;BME280;39550;52.230;5.194;2022-08-19T03:37:55;101242.75;;;19.87;67.67
53647;BME280;39550;52.230;5.194;2022-08-19T03:40:21;101232.28;;;19.87;67.27
53647;BME280;39550;52.230;5.194;2022-08-19T03:42:46;101231.53;;;19.82;67.72
53647;BME280;39550;52.230;5.194;2022-08-19T03:45:12;101230.59;;;19.84;67.38
53647;BME280;39550;52.230;5.194;2022-08-19T03:47:37;101232.31;;;19.84;67.26
53647;BME280;39550;52.230;5.194;2022-08-19T03:50:04;101233.25;;;19.83;67.55
53647;BME280;39550;52.230;5.194;2022-08-19T03:52:29;101216.00;;;19.72;67.43
53647;BME280;39550;52.230;5.194;2022-08-19T03:54:55;101238.50;;;19.81;67.40
53647;BME280;39550;52.230;5.194;2022-08-19T03:57:20;101238.53;;;19.80;67.39
53647;BME280;39550;52.230;5.194;2022-08-19T03:59:46;101233.34;;;19.77;67.39
53647;BME280;39550;52.230;5.194;2022-08-19T04:02:12;101234.19;;;19.79;66.64
53647;BME280;39550;52.230;5.194;2022-08-19T04:04:40;101236.84;;;19.77;67.13
53647;BME280;39550;52.230;5.194;2022-08-19T04:07:06;101241.19;;;19.77;66.97
53647;BME280;39550;52.230;5.194;2022-08-19T04:09:34;101236.00;;;19.75;67.13
53647;BME280;39550;52.230;5.194;2022-08-19T04:11:59;101243.00;;;19.74;67.11
53647;BME280;39550;52.230;5.194;2022-08-19T04:14:27;101249.13;;;19.73;67.20
53647;BME280;39550;52.230;5.194;2022-08-19T04:16:55;101238.69;;;19.72;67.17
53647;BME280;39550;52.230;5.194;2022-08-19T04:19:20;101241.31;;;19.72;67.15
53647;BME280;39550;52.230;5.194;2022-08-19T04:21:49;101240.44;;;19.71;67.22
53647;BME280;39550;52.230;5.194;2022-08-19T04:24:15;101229.16;;;19.69;67.22
53647;BME280;39550;52.230;5.194;2022-08-19T04:26:41;101217.06;;;19.65;66.90
53647;BME280;39550;52.230;5.194;2022-08-19T04:29:16;101225.72;;;19.69;67.12
53647;BME280;39550;52.230;5.194;2022-08-19T04:31:42;101218.00;;;19.63;66.79
53647;BME280;39550;52.230;5.194;2022-08-19T04:34:09;101222.25;;;19.67;66.90
53647;BME280;39550;52.230;5.194;2022-08-19T04:36:38;101218.78;;;19.66;67.13
53647;BME280;39550;52.230;5.194;2022-08-19T04:39:16;101217.06;;;19.65;66.84
53647;BME280;39550;52.230;5.194;2022-08-19T04:41:42;101225.78;;;19.64;66.82
53647;BME280;39550;52.230;5.194;2022-08-19T04:44:27;101224.94;;;19.64;66.82
53647;BME280;39550;52.230;5.194;2022-08-19T04:46:55;101227.56;;;19.64;66.94
53647;BME280;39550;52.230;5.194;2022-08-19T04:49:22;101224.06;;;19.63;66.92
53647;BME280;39550;52.230;5.194;2022-08-19T04:51:49;101234.56;;;19.62;67.22
53647;BME280;39550;52.230;5.194;2022-08-19T04:54:16;101236.34;;;19.61;66.81
53647;BME280;39550;52.230;5.194;2022-08-19T04:56:41;101240.72;;;19.61;67.09
53647;BME280;39550;52.230;5.194;2022-08-19T04:59:07;101235.63;;;19.54;66.95
53647;BME280;39550;52.230;5.194;2022-08-19T05:01:33;101240.72;;;19.59;66.98
53647;BME280;39550;52.230;5.194;2022-08-19T05:04:00;101252.06;;;19.60;66.81
53647;BME280;39550;52.230;5.194;2022-08-19T05:06:27;101247.72;;;19.59;66.90
53647;BME280;39550;52.230;5.194;2022-08-19T05:08:54;101256.41;;;19.59;66.71
53647;BME280;39550;52.230;5.194;2022-08-19T05:11:22;101259.03;;;19.59;66.89
53647;BME280;39550;52.230;5.194;2022-08-19T05:13:48;101263.41;;;19.59;66.74
53647;BME280;39550;52.230;5.194;2022-08-19T05:16:15;101267.78;;;19.58;66.86
53647;BME280;39550;52.230;5.194;2022-08-19T05:18:41;101267.78;;;19.58;66.90
53647;BME280;39550;52.230;5.194;2022-08-19T05:21:26;101267.78;;;19.58;66.72
53647;BME280;39550;52.230;5.194;2022-08-19T05:24:11;101256.50;;;19.56;66.89
53647;BME280;39550;52.230;5.194;2022-08-19T05:26:39;101266.06;;;19.57;66.75
53647;BME280;39550;52.230;5.194;2022-08-19T05:29:06;101259.09;;;19.56;66.82
53647;BME280;39550;52.230;5.194;2022-08-19T05:31:33;101253.88;;;19.56;66.79
53647;BME280;39550;52.230;5.194;2022-08-19T05:33:58;101242.59;;;19.54;67.07
53647;BME280;39550;52.230;5.194;2022-08-19T05:36:26;101250.44;;;19.54;66.65
53647;BME280;39550;52.230;5.194;2022-08-19T05:38:52;101255.63;;;19.55;66.89
53647;BME280;39550;52.230;5.194;2022-08-19T05:41:18;101255.59;;;19.57;66.67
53647;BME280;39550;52.230;5.194;2022-08-19T05:43:44;101253.78;;;19.59;66.64
53647;BME280;39550;52.230;5.194;2022-08-19T05:46:16;101253.78;;;19.59;66.73
53647;BME280;39550;52.230;5.194;2022-08-19T05:48:43;101256.41;;;19.59;66.77
53647;BME280;39550;52.230;5.194;2022-08-19T05:51:09;101247.72;;;19.59;66.74
53647;BME280;39550;52.230;5.194;2022-08-19T05:53:35;101247.72;;;19.59;66.84
53647;BME280;39550;52.230;5.194;2022-08-19T05:56:05;101243.34;;;19.59;66.79
53647;BME280;39550;52.230;5.194;2022-08-19T05:58:30;101248.56;;;19.61;66.89
53647;BME280;39550;52.230;5.194;2022-08-19T06:00:57;101238.06;;;19.62;66.69
53647;BME280;39550;52.230;5.194;2022-08-19T06:03:22;101235.44;;;19.62;66.94
53647;BME280;39550;52.230;5.194;2022-08-19T06:05:48;101238.06;;;19.62;66.85
53647;BME280;39550;52.230;5.194;2022-08-19T06:08:13;101243.28;;;19.62;67.26
53647;BME280;39550;52.230;5.194;2022-08-19T06:10:39;101245.91;;;19.62;67.09
53647;BME280;39550;52.230;5.194;2022-08-19T06:13:04;101238.16;;;19.57;66.90
53647;BME280;39550;52.230;5.194;2022-08-19T06:15:30;101246.78;;;19.61;67.20
53647;BME280;39550;52.230;5.194;2022-08-19T06:17:56;101247.69;;;19.60;67.00
53647;BME280;39550;52.230;5.194;2022-08-19T06:20:21;101253.78;;;19.59;66.95
53647;BME280;39550;52.230;5.194;2022-08-19T06:22:48;101252.91;;;19.60;67.26
53647;BME280;39550;52.230;5.194;2022-08-19T06:25:17;101248.56;;;19.59;67.15
53647;BME280;39550;52.230;5.194;2022-08-19T06:27:43;101225.22;;;19.51;67.32
53647;BME280;39550;52.230;5.194;2022-08-19T06:30:08;101245.06;;;19.60;67.45
53647;BME280;39550;52.230;5.194;2022-08-19T06:32:35;101246.78;;;19.61;67.37
53647;BME280;39550;52.230;5.194;2022-08-19T06:35:00;101240.72;;;19.61;67.52
53647;BME280;39550;52.230;5.194;2022-08-19T06:37:25;101241.56;;;19.61;67.27
53647;BME280;39550;52.230;5.194;2022-08-19T06:39:51;101244.19;;;19.61;67.31
53647;BME280;39550;52.230;5.194;2022-08-19T06:42:16;101252.03;;;19.61;67.41
53647;BME280;39550;52.230;5.194;2022-08-19T06:44:45;101240.72;;;19.61;67.39
53647;BME280;39550;52.230;5.194;2022-08-19T06:47:13;101247.63;;;19.62;67.43
53647;BME280;39550;52.230;5.194;2022-08-19T06:49:39;101250.25;;;19.62;67.34
53647;BME280;39550;52.230;5.194;2022-08-19T06:52:05;101257.25;;;19.61;67.40
53647;BME280;39550;52.230;5.194;2022-08-19T06:54:31;101251.97;;;19.63;67.59
53647;BME280;39550;52.230;5.194;2022-08-19T06:57:00;101254.56;;;19.64;67.49
53647;BME280;39550;52.230;5.194;2022-08-19T06:59:30;101256.38;;;19.62;67.62
53647;BME280;39550;52.230;5.194;2022-08-19T07:01:59;101258.97;;;19.62;67.64
53647;BME280;39550;52.230;5.194;2022-08-19T07:04:27;101261.59;;;19.62;67.54
53647;BME280;39550;52.230;5.194;2022-08-19T07:07:01;101258.97;;;19.62;67.50
53647;BME280;39550;52.230;5.194;2022-08-19T07:09:27;101254.63;;;19.61;67.57
53647;BME280;39550;52.230;5.194;2022-08-19T07:11:54;101258.25;;;19.55;67.77
53647;BME280;39550;52.230;5.194;2022-08-19T07:14:23;101262.47;;;19.61;67.91
53647;BME280;39550;52.230;5.194;2022-08-19T07:16:50;101274.66;;;19.62;67.92
53647;BME280;39550;52.230;5.194;2022-08-19T07:19:17;101274.69;;;19.61;67.82
53647;BME280;39550;52.230;5.194;2022-08-19T07:21:43;101272.94;;;19.61;67.77
53647;BME280;39550;52.230;5.194;2022-08-19T07:24:08;101274.66;;;19.62;67.89
53647;BME280;39550;52.230;5.194;2022-08-19T07:26:38;101279.00;;;19.62;67.78
53647;BME280;39550;52.230;5.194;2022-08-19T07:29:04;101282.56;;;19.59;67.91
53647;BME280;39550;52.230;5.194;2022-08-19T07:31:29;101283.47;;;19.58;67.94
53647;BME280;39550;52.230;5.194;2022-08-19T07:33:55;101285.13;;;19.62;67.74
53647;BME280;39550;52.230;5.194;2022-08-19T07:36:25;101288.63;;;19.61;68.07
53647;BME280;39550;52.230;5.194;2022-08-19T07:38:54;101286.91;;;19.60;67.96
53647;BME280;39550;52.230;5.194;2022-08-19T07:41:22;101285.13;;;19.62;68.08
53647;BME280;39550;52.230;5.194;2022-08-19T07:43:48;101279.84;;;19.64;67.90
53647;BME280;39550;52.230;5.194;2022-08-19T07:46:14;101268.50;;;19.65;68.05
53647;BME280;39550;52.230;5.194;2022-08-19T07:48:42;101280.63;;;19.67;67.87
53647;BME280;39550;52.230;5.194;2022-08-19T07:51:10;101284.97;;;19.68;68.20
53647;BME280;39550;52.230;5.194;2022-08-19T07:53:37;101279.72;;;19.68;67.85
53647;BME280;39550;52.230;5.194;2022-08-19T07:56:04;101279.72;;;19.68;67.79
53647;BME280;39550;52.230;5.194;2022-08-19T07:58:32;101280.63;;;19.67;67.99
53647;BME280;39550;52.230;5.194;2022-08-19T08:00:58;101291.03;;;19.70;67.81
53647;BME280;39550;52.230;5.194;2022-08-19T08:03:24;101290.16;;;19.70;67.78
53647;BME280;39550;52.230;5.194;2022-08-19T08:06:09;101282.38;;;19.67;67.86
53647;BME280;39550;52.230;5.194;2022-08-19T08:08:54;101291.84;;;19.72;67.61
53647;BME280;39550;52.230;5.194;2022-08-19T08:11:38;101302.38;;;19.69;67.72
53647;BME280;39550;52.230;5.194;2022-08-19T08:14:05;101311.09;;;19.68;67.95
53647;BME280;39550;52.230;5.194;2022-08-19T08:16:36;101300.72;;;19.65;68.04
53647;BME280;39550;52.230;5.194;2022-08-19T08:19:06;101305.88;;;19.68;68.04
53647;BME280;39550;52.230;5.194;2022-08-19T08:21:32;101301.63;;;19.64;68.06
53647;BME280;39550;52.230;5.194;2022-08-19T08:23:58;101313.66;;;19.71;67.67
53647;BME280;39550;52.230;5.194;2022-08-19T08:26:23;101318.84;;;19.74;68.16
53647;BME280;39550;52.230;5.194;2022-08-19T08:28:50;101326.63;;;19.76;67.79
53647;BME280;39550;52.230;5.194;2022-08-19T08:31:15;101316.97;;;19.80;67.70
53647;BME280;39550;52.230;5.194;2022-08-19T08:33:41;101308.22;;;19.82;67.42
53647;BME280;39550;52.230;5.194;2022-08-19T08:36:08;101309.09;;;19.83;67.45
53647;BME280;39550;52.230;5.194;2022-08-19T08:38:35;101310.78;;;19.84;67.61
53647;BME280;39550;52.230;5.194;2022-08-19T08:43:51;101323.06;;;19.82;67.79
53647;BME280;39550;52.230;5.194;2022-08-19T08:46:27;101316.09;;;19.81;67.92
53647;BME280;39550;52.230;5.194;2022-08-19T08:48:57;101325.63;;;19.83;67.85
53647;BME280;39550;52.230;5.194;2022-08-19T08:51:27;101322.97;;;19.85;67.74
53647;BME280;39550;52.230;5.194;2022-08-19T08:53:54;101310.75;;;19.87;67.87
53647;BME280;39550;52.230;5.194;2022-08-19T08:56:20;101325.56;;;19.86;67.81
53647;BME280;39550;52.230;5.194;2022-08-19T08:58:57;101320.34;;;19.85;67.79
53647;BME280;39550;52.230;5.194;2022-08-19T09:01:23;101327.41;;;19.81;67.87
53647;BME280;39550;52.230;5.194;2022-08-19T09:03:48;101316.09;;;19.81;68.04
53647;BME280;39550;52.230;5.194;2022-08-19T09:06:23;101320.41;;;19.83;67.60
53647;BME280;39550;52.230;5.194;2022-08-19T09:09:02;101310.78;;;19.84;67.86
53647;BME280;39550;52.230;5.194;2022-08-19T09:11:47;101309.84;;;19.86;67.90
53647;BME280;39550;52.230;5.194;2022-08-19T09:14:34;101308.94;;;19.89;67.71
53647;BME280;39550;52.230;5.194;2022-08-19T09:17:01;101312.44;;;19.88;67.20
53647;BME280;39550;52.230;5.194;2022-08-19T09:19:29;101318.53;;;19.88;67.43
53647;BME280;39550;52.230;5.194;2022-08-19T09:21:54;101317.50;;;19.96;67.48
53647;BME280;39550;52.230;5.194;2022-08-19T09:24:19;101320.16;;;19.94;67.57
53647;BME280;39550;52.230;5.194;2022-08-19T09:26:45;101327.84;;;20.00;67.27
53647;BME280;39550;52.230;5.194;2022-08-19T09:29:10;101318.28;;;19.99;67.34
53647;BME280;39550;52.230;5.194;2022-08-19T09:31:36;101317.47;;;19.97;67.31
53647;BME280;39550;52.230;5.194;2022-08-19T09:34:02;101327.00;;;20.00;67.42
53647;BME280;39550;52.230;5.194;2022-08-19T09:36:30;101316.50;;;20.01;67.05
53647;BME280;39550;52.230;5.194;2022-08-19T09:38:58;101318.31;;;19.98;67.32
53647;BME280;39550;52.230;5.194;2022-08-19T09:41:25;101322.72;;;19.96;67.50
53647;BME280;39550;52.230;5.194;2022-08-19T09:43:53;101325.38;;;19.94;67.63
53647;BME280;39550;52.230;5.194;2022-08-19T09:46:22;101328.84;;;19.95;67.45
53647;BME280;39550;52.230;5.194;2022-08-19T09:48:49;101327.84;;;20.00;67.47
53647;BME280;39550;52.230;5.194;2022-08-19T09:51:24;101324.25;;;20.04;66.96
53647;BME280;39550;52.230;5.194;2022-08-19T09:53:51;101326.16;;;19.99;66.97
53647;BME280;39550;52.230;5.194;2022-08-19T09:56:20;101330.28;;;20.08;66.91
53647;BME280;39550;52.230;5.194;2022-08-19T09:58:47;101320.59;;;20.12;66.86
53647;BME280;39550;52.230;5.194;2022-08-19T10:01:38;101331.91;;;20.14;66.76
53647;BME280;39550;52.230;5.194;2022-08-19T10:04:04;101318.00;;;20.10;66.58
53647;BME280;39550;52.230;5.194;2022-08-19T10:06:34;101332.66;;;20.19;66.44
53647;BME280;39550;52.230;5.194;2022-08-19T10:09:00;101325.53;;;20.24;66.31
53647;BME280;39550;52.230;5.194;2022-08-19T10:11:26;101322.09;;;20.22;67.03
53647;BME280;39550;52.230;5.194;2022-08-19T10:13:52;101322.09;;;20.22;67.02
53647;BME280;39550;52.230;5.194;2022-08-19T10:16:20;101313.28;;;20.26;66.18
53647;BME280;39550;52.230;5.194;2022-08-19T10:18:47;101321.03;;;20.29;66.30
53647;BME280;39550;52.230;5.194;2022-08-19T10:21:15;101311.31;;;20.34;66.23
53647;BME280;39550;52.230;5.194;2022-08-19T10:23:44;101314.84;;;20.33;66.11
53647;BME280;39550;52.230;5.194;2022-08-19T10:26:11;101312.22;;;20.33;65.95
53647;BME280;39550;52.230;5.194;2022-08-19T10:28:37;101311.16;;;20.40;66.13
53647;BME280;39550;52.230;5.194;2022-08-19T10:31:08;101311.00;;;20.47;65.96
53647;BME280;39550;52.230;5.194;2022-08-19T10:33:34;101311.78;;;20.50;66.00
53647;BME280;39550;52.230;5.194;2022-08-19T10:36:09;101311.78;;;20.50;66.07
53647;BME280;39550;52.230;5.194;2022-08-19T10:38:36;101317.88;;;20.51;66.31
53647;BME280;39550;52.230;5.194;2022-08-19T10:41:12;101307.41;;;20.51;66.35
53647;BME280;39550;52.230;5.194;2022-08-19T10:43:39;101301.34;;;20.49;66.15
53647;BME280;39550;52.230;5.194;2022-08-19T10:46:09;101303.88;;;20.52;66.18
53647;BME280;39550;52.230;5.194;2022-08-19T10:48:35;101307.25;;;20.57;66.30
53647;BME280;39550;52.230;5.194;2022-08-19T10:51:01;101307.00;;;20.66;65.89
53647;BME280;39550;52.230;5.194;2022-08-19T10:53:44;101299.03;;;20.71;66.14
53647;BME280;39550;52.230;5.194;2022-08-19T10:56:12;101297.56;;;20.61;66.34
53647;BME280;39550;52.230;5.194;2022-08-19T10:58:55;101300.38;;;20.53;67.72
53647;BME280;39550;52.230;5.194;2022-08-19T11:01:23;101300.38;;;20.53;66.27
53647;BME280;39550;52.230;5.194;2022-08-19T11:03:48;101296.94;;;20.51;66.95
53647;BME280;39550;52.230;5.194;2022-08-19T11:06:14;101307.16;;;20.60;66.43
53647;BME280;39550;52.230;5.194;2022-08-19T11:08:39;101292.13;;;20.68;66.60
53647;BME280;39550;52.230;5.194;2022-08-19T11:11:07;101300.56;;;20.80;66.31
53647;BME280;39550;52.230;5.194;2022-08-19T11:13:36;101303.34;;;20.73;66.67
53647;BME280;39550;52.230;5.194;2022-08-19T11:18:37;101293.66;;;20.77;65.83
53647;BME280;39550;52.230;5.194;2022-08-19T11:21:17;101308.16;;;20.89;66.00
53647;BME280;39550;52.230;5.194;2022-08-19T11:23:45;101301.03;;;20.94;65.67
53647;BME280;39550;52.230;5.194;2022-08-19T11:26:12;101299.44;;;20.88;66.14
53647;BME280;39550;52.230;5.194;2022-08-19T11:28:38;101297.88;;;20.83;66.01
53647;BME280;39550;52.230;5.194;2022-08-19T11:31:04;101297.97;;;20.80;66.63
53647;BME280;39550;52.230;5.194;2022-08-19T11:33:34;101299.00;;;20.72;66.36
53647;BME280;39550;52.230;5.194;2022-08-19T11:35:59;101304.38;;;20.66;67.26
53647;BME280;39550;52.230;5.194;2022-08-19T11:38:26;101295.78;;;20.61;67.10
53647;BME280;39550;52.230;5.194;2022-08-19T11:40:56;101302.00;;;20.57;67.43
53647;BME280;39550;52.230;5.194;2022-08-19T11:43:22;101306.34;;;20.58;67.80
53647;BME280;39550;52.230;5.194;2022-08-19T11:45:47;101292.47;;;20.54;67.35
53647;BME280;39550;52.230;5.194;2022-08-19T11:48:14;101297.78;;;20.51;67.71
53647;BME280;39550;52.230;5.194;2022-08-19T11:50:39;101295.97;;;20.55;67.41
53647;BME280;39550;52.230;5.194;2022-08-19T11:53:07;101310.78;;;20.54;67.53
53647;BME280;39550;52.230;5.194;2022-08-19T11:55:32;101315.22;;;20.52;67.68
53647;BME280;39550;52.230;5.194;2022-08-19T11:57:57;101320.53;;;20.49;68.17
53647;BME280;39550;52.230;5.194;2022-08-19T12:00:23;101315.31;;;20.49;67.63
53647;BME280;39550;52.230;5.194;2022-08-19T12:02:48;101317.94;;;20.48;68.02
53647;BME280;39550;52.230;5.194;2022-08-19T12:05:13;101325.53;;;20.58;67.89
53647;BME280;39550;52.230;5.194;2022-08-19T12:07:40;101327.16;;;20.63;67.51
53647;BME280;39550;52.230;5.194;2022-08-19T12:10:08;101323.75;;;20.61;67.70
53647;BME280;39550;52.230;5.194;2022-08-19T12:12:34;101326.41;;;20.59;67.68
53647;BME280;39550;52.230;5.194;2022-08-19T12:14:59;101324.69;;;20.58;68.16
53647;BME280;39550;52.230;5.194;2022-08-19T12:17:26;101319.44;;;20.58;68.06
53647;BME280;39550;52.230;5.194;2022-08-19T12:19:53;101329.81;;;20.61;68.02
53647;BME280;39550;52.230;5.194;2022-08-19T12:22:18;101340.28;;;20.61;67.78
53647;BME280;39550;52.230;5.194;2022-08-19T12:24:45;101339.41;;;20.62;68.03
53647;BME280;39550;52.230;5.194;2022-08-19T12:27:10;101322.91;;;20.58;68.76
53647;BME280;39550;52.230;5.194;2022-08-19T12:29:35;101335.84;;;20.65;67.97
53647;BME280;39550;52.230;5.194;2022-08-19T12:32:01;101324.44;;;20.67;67.75
53647;BME280;39550;52.230;5.194;2022-08-19T12:34:31;101326.03;;;20.74;68.01
53647;BME280;39550;52.230;5.194;2022-08-19T12:36:58;101322.41;;;20.79;68.04
53647;BME280;39550;52.230;5.194;2022-08-19T12:39:24;101310.88;;;20.86;67.53
53647;BME280;39550;52.230;5.194;2022-08-19T12:41:50;101314.88;;;20.99;67.41
53647;BME280;39550;52.230;5.194;2022-08-19T12:44:15;101299.19;;;20.98;67.41
53647;BME280;39550;52.230;5.194;2022-08-19T12:46:41;101305.34;;;20.97;67.39
53647;BME280;39550;52.230;5.194;2022-08-19T12:49:06;101306.47;;;20.88;67.69
53647;BME280;39550;52.230;5.194;2022-08-19T12:51:31;101301.47;;;20.79;67.69
53647;BME280;39550;52.230;5.194;2022-08-19T12:53:57;101310.13;;;20.81;68.01
53647;BME280;39550;52.230;5.194;2022-08-19T12:56:22;101311.94;;;20.79;68.38
53647;BME280;39550;52.230;5.194;2022-08-19T12:58:47;101306.69;;;20.79;67.97